Time;durP1;ratioP1;P1;durP2;ratioP2;P2;SDS_P1;SDS_P2;PMS_P1;PMS_P2;Temp;Humidity;BMP_temperature;BMP_pressure;BME280_temperature;BME280_humidity;BME280_pressure;Samples;Min_cycle;Max_cycle;Signal;HPM_P1;HPM_P2
2022/04/07 00:01:20;;;;;;;17.45;12.27;;;;;;;;;;5053748;28;20477;-73
2022/04/07 00:03:47;;;;;;;16.35;12.30;;;;;;;;;;5053677;28;20032;-73
2022/04/07 00:06:13;;;;;;;15.75;12.30;;;;;;;;;;5052401;28;20028;-73
2022/04/07 00:08:40;;;;;;;16.77;11.85;;;;;;;;;;5053710;28;20516;-73
2022/04/07 00:11:06;;;;;;;15.82;11.35;;;;;;;;;;5053315;28;20025;-73
2022/04/07 00:13:32;;;;;;;15.63;11.80;;;;;;;;;;5053846;28;20381;-73
2022/04/07 00:15:59;;;;;;;19.40;11.50;;;;;;;;;;5053467;28;20036;-73
2022/04/07 00:18:26;;;;;;;16.50;12.07;;;;;;;;;;5053315;28;20036;-73
2022/04/07 00:20:52;;;;;;;17.27;11.90;;;;;;;;;;5053215;28;20034;-73
2022/04/07 00:23:19;;;;;;;15.57;12.02;;;;;;;;;;5053261;28;20075;-73
2022/04/07 00:25:45;;;;;;;15.23;11.60;;;;;;;;;;5053316;28;20025;-73
2022/04/07 00:28:11;;;;;;;17.75;12.25;;;;;;;;;;5052247;28;20482;-73
2022/04/07 00:30:39;;;;;;;15.18;11.60;;;;;;;;;;5053393;28;20501;-73
2022/04/07 00:33:06;;;;;;;15.30;12.85;;;;;;;;;;5053180;28;20079;-73
2022/04/07 00:35:32;;;;;;;16.55;12.52;;;;;;;;;;5053135;28;20029;-73
2022/04/07 00:37:58;;;;;;;19.90;13.35;;;;;;;;;;5053344;28;20035;-73
2022/04/07 00:40:24;;;;;;;18.55;13.25;;;;;;;;;;5053258;28;20021;-73
2022/04/07 00:42:51;;;;;;;16.03;12.40;;;;;;;;;;5053126;28;20576;-73
2022/04/07 00:45:18;;;;;;;18.67;13.07;;;;;;;;;;5052966;28;20381;-73
2022/04/07 00:47:45;;;;;;;16.42;11.93;;;;;;;;;;5052852;28;20029;-73
2022/04/07 00:50:12;;;;;;;14.75;12.35;;;;;;;;;;5052918;28;20424;-73
2022/04/07 00:52:42;;;;;;;19.58;12.85;;;;;;;;;;5052941;28;20036;-73
2022/04/07 00:55:10;;;;;;;16.52;12.25;;;;;;;;;;5052886;28;20442;-73
2022/04/07 00:57:36;;;;;;;16.70;12.75;;;;;;;;;;5050765;28;20358;-73
2022/04/07 01:00:04;;;;;;;19.40;12.87;;;;;;;;;;5050237;28;20036;-73
2022/04/07 01:02:30;;;;;;;20.17;13.30;;;;;;;;;;5049549;28;20065;-74
2022/04/07 01:04:57;;;;;;;15.60;12.98;;;;;;;;;;5051526;28;20031;-73
2022/04/07 01:07:23;;;;;;;22.43;13.13;;;;;;;;;;5052482;28;20028;-74
2022/04/07 01:09:49;;;;;;;16.23;13.07;;;;;;;;;;5052797;28;20430;-73
2022/04/07 01:12:15;;;;;;;18.02;13.57;;;;;;;;;;5052596;28;20029;-73
2022/04/07 01:15:01;;;;;;;22.65;13.25;;;;;;;;;;5052597;28;20037;-74
2022/04/07 01:17:27;;;;;;;20.67;13.07;;;;;;;;;;5053037;28;20025;-73
2022/04/07 01:19:53;;;;;;;19.48;12.85;;;;;;;;;;5051481;28;20036;-73
2022/04/07 01:22:23;;;;;;;17.93;12.77;;;;;;;;;;5052383;28;20033;-73
2022/04/07 01:24:49;;;;;;;26.48;13.60;;;;;;;;;;5052222;28;20032;-73
2022/04/07 01:27:16;;;;;;;22.77;13.13;;;;;;;;;;5052653;28;20052;-74
2022/04/07 01:29:43;;;;;;;20.20;12.77;;;;;;;;;;5052446;28;20021;-73
2022/04/07 01:32:16;;;;;;;24.20;13.73;;;;;;;;;;5052571;28;20465;-73
2022/04/07 01:34:43;;;;;;;21.23;13.67;;;;;;;;;;5052614;28;20456;-73
2022/04/07 01:37:09;;;;;;;20.10;12.97;;;;;;;;;;5052404;28;20029;-73
2022/04/07 01:39:37;;;;;;;21.20;13.47;;;;;;;;;;5052364;28;20032;-74
2022/04/07 01:42:03;;;;;;;17.27;12.77;;;;;;;;;;5052228;28;20049;-74
2022/04/07 01:44:30;;;;;;;18.27;13.13;;;;;;;;;;5052249;28;20028;-72
2022/04/07 01:46:57;;;;;;;19.00;12.93;;;;;;;;;;5052378;28;20029;-73
2022/04/07 01:49:23;;;;;;;23.60;13.10;;;;;;;;;;5052718;28;20021;-73
2022/04/07 01:51:50;;;;;;;19.73;13.33;;;;;;;;;;5052527;28;20090;-74
2022/04/07 01:54:16;;;;;;;20.77;13.20;;;;;;;;;;5052096;28;20032;-73
2022/04/07 01:56:43;;;;;;;19.57;13.27;;;;;;;;;;5052130;28;20031;-73
2022/04/07 01:59:09;;;;;;;15.67;12.93;;;;;;;;;;5052302;28;20021;-73
2022/04/07 02:01:36;;;;;;;18.70;12.67;;;;;;;;;;5052140;28;20060;-74
2022/04/07 02:04:02;;;;;;;18.03;12.87;;;;;;;;;;5052456;28;20045;-73
2022/04/07 02:06:28;;;;;;;17.00;11.90;;;;;;;;;;5050905;28;20021;-73
2022/04/07 02:08:54;;;;;;;16.37;11.30;;;;;;;;;;5053008;28;20054;-73
2022/04/07 02:11:23;;;;;;;16.80;10.40;;;;;;;;;;5056038;28;20032;-73
2022/04/07 02:13:50;;;;;;;12.37;10.00;;;;;;;;;;5055986;28;20024;-73
2022/04/07 02:16:16;;;;;;;14.37;9.70;;;;;;;;;;5055721;28;20029;-73
2022/04/07 02:18:42;;;;;;;13.60;9.97;;;;;;;;;;5054712;28;20048;-73
2022/04/07 02:21:09;;;;;;;12.40;10.20;;;;;;;;;;5055536;28;20024;-73
2022/04/07 02:23:42;;;;;;;15.50;10.67;;;;;;;;;;5055475;28;20025;-74
2022/04/07 02:26:14;;;;;;;15.05;10.52;;;;;;;;;;5055435;28;20013;-73
2022/04/07 02:28:40;;;;;;;14.82;10.30;;;;;;;;;;5055743;28;20059;-73
2022/04/07 02:31:07;;;;;;;14.97;11.03;;;;;;;;;;5055421;28;20017;-74
2022/04/07 02:33:34;;;;;;;18.47;11.53;;;;;;;;;;5055184;28;20028;-73
2022/04/07 02:36:01;;;;;;;16.60;11.70;;;;;;;;;;5055658;28;20024;-73
2022/04/07 02:38:27;;;;;;;19.40;11.33;;;;;;;;;;5055536;28;20024;-73
2022/04/07 02:40:53;;;;;;;20.20;12.00;;;;;;;;;;5055291;28;20108;-73
2022/04/07 02:43:19;;;;;;;14.40;11.73;;;;;;;;;;5055202;28;20106;-73
2022/04/07 02:45:45;;;;;;;17.03;11.60;;;;;;;;;;5055270;28;20032;-73
2022/04/07 02:48:11;;;;;;;16.03;10.40;;;;;;;;;;5055053;28;20028;-73
2022/04/07 02:50:37;;;;;;;15.27;11.27;;;;;;;;;;5053659;28;20044;-73
2022/04/07 02:53:03;;;;;;;18.23;11.83;;;;;;;;;;5054882;28;20025;-73
2022/04/07 02:55:29;;;;;;;20.73;13.27;;;;;;;;;;5055196;28;20540;-73
2022/04/07 02:57:59;;;;;;;17.93;11.83;;;;;;;;;;5055065;28;20104;-73
2022/04/07 03:00:25;;;;;;;16.63;12.10;;;;;;;;;;5055002;28;20058;-72
2022/04/07 03:02:51;;;;;;;17.03;13.33;;;;;;;;;;5054974;28;20520;-73
2022/04/07 03:05:18;;;;;;;21.93;11.80;;;;;;;;;;5054825;28;20025;-73
2022/04/07 03:07:44;;;;;;;18.23;13.47;;;;;;;;;;5054678;28;20469;-73
2022/04/07 03:10:10;;;;;;;20.63;12.47;;;;;;;;;;5053456;28;20029;-73
2022/04/07 03:12:37;;;;;;;17.37;12.40;;;;;;;;;;5054777;28;20029;-73
2022/04/07 03:15:04;;;;;;;20.77;13.20;;;;;;;;;;5054687;28;20021;-73
2022/04/07 03:17:30;;;;;;;16.80;12.57;;;;;;;;;;5054882;28;20444;-73
2022/04/07 03:19:56;;;;;;;19.13;13.13;;;;;;;;;;5054536;28;20044;-74
2022/04/07 03:22:22;;;;;;;17.93;12.47;;;;;;;;;;5054574;28;20485;-73
2022/04/07 03:24:48;;;;;;;16.20;12.13;;;;;;;;;;5054490;28;20021;-73
2022/04/07 03:27:14;;;;;;;16.10;11.83;;;;;;;;;;5054673;28;20033;-72
2022/04/07 03:29:40;;;;;;;20.27;12.20;;;;;;;;;;5054576;28;20071;-73
2022/04/07 03:32:06;;;;;;;16.77;12.30;;;;;;;;;;5054527;28;20332;-73
2022/04/07 03:34:33;;;;;;;18.37;12.60;;;;;;;;;;5053037;28;20029;-73
2022/04/07 03:37:00;;;;;;;20.20;12.00;;;;;;;;;;5054352;28;20099;-73
2022/04/07 03:39:26;;;;;;;17.00;12.10;;;;;;;;;;5054151;28;20584;-73
2022/04/07 03:41:52;;;;;;;19.67;11.90;;;;;;;;;;5052827;28;20056;-72
2022/04/07 03:44:18;;;;;;;16.50;10.80;;;;;;;;;;5054047;28;20021;-73
2022/04/07 03:46:44;;;;;;;16.03;11.37;;;;;;;;;;5054161;28;20032;-72
2022/04/07 03:49:10;;;;;;;17.37;10.50;;;;;;;;;;5054217;28;20111;-73
2022/04/07 03:51:36;;;;;;;15.27;11.27;;;;;;;;;;5054201;28;20027;-73
2022/04/07 03:54:02;;;;;;;14.17;10.70;;;;;;;;;;5053959;28;20017;-73
2022/04/07 03:56:29;;;;;;;15.37;11.30;;;;;;;;;;5053769;28;20029;-73
2022/04/07 03:58:55;;;;;;;17.97;10.30;;;;;;;;;;5054121;28;20017;-73
2022/04/07 04:01:22;;;;;;;15.97;11.07;;;;;;;;;;5053659;28;20091;-73
2022/04/07 04:03:48;;;;;;;15.97;10.43;;;;;;;;;;5053676;28;20100;-73
2022/04/07 04:06:14;;;;;;;14.33;10.33;;;;;;;;;;5053874;28;20087;-73
2022/04/07 04:08:40;;;;;;;14.37;11.00;;;;;;;;;;5053676;28;20025;-73
2022/04/07 04:11:06;;;;;;;16.63;10.27;;;;;;;;;;5053500;28;20031;-73
2022/04/07 04:13:32;;;;;;;15.30;10.70;;;;;;;;;;5053843;28;20032;-73
2022/04/07 04:15:58;;;;;;;15.00;10.27;;;;;;;;;;5053708;28;20116;-73
2022/04/07 04:18:24;;;;;;;16.07;10.13;;;;;;;;;;5053611;28;20025;-73
2022/04/07 04:20:50;;;;;;;14.53;10.40;;;;;;;;;;5052121;28;20025;-73
2022/04/07 04:23:16;;;;;;;20.10;11.80;;;;;;;;;;5053456;28;20039;-72
2022/04/07 04:25:42;;;;;;;16.27;11.87;;;;;;;;;;5053544;28;20381;-73
2022/04/07 04:28:08;;;;;;;17.53;12.00;;;;;;;;;;5053161;28;20029;-73
2022/04/07 04:30:35;;;;;;;21.20;11.90;;;;;;;;;;5053356;28;20025;-73
2022/04/07 04:33:01;;;;;;;16.90;11.90;;;;;;;;;;5052788;28;20024;-73
2022/04/07 04:35:27;;;;;;;20.23;11.70;;;;;;;;;;5053421;28;20483;-73
2022/04/07 04:37:53;;;;;;;17.00;11.63;;;;;;;;;;5053193;28;20033;-73
2022/04/07 04:40:20;;;;;;;14.47;11.80;;;;;;;;;;5053103;28;20058;-73
2022/04/07 04:42:46;;;;;;;20.38;12.75;;;;;;;;;;5053009;28;20127;-73
2022/04/07 04:45:12;;;;;;;16.27;11.83;;;;;;;;;;5052918;28;20377;-73
2022/04/07 04:47:38;;;;;;;18.73;11.93;;;;;;;;;;5051921;28;20021;-73
2022/04/07 04:50:05;;;;;;;15.90;11.93;;;;;;;;;;5053141;28;20025;-73
2022/04/07 04:52:31;;;;;;;18.30;11.97;;;;;;;;;;5053404;28;20090;-73
2022/04/07 04:54:58;;;;;;;20.52;11.40;;;;;;;;;;5053193;28;20427;-73
2022/04/07 04:57:24;;;;;;;21.97;11.77;;;;;;;;;;5052996;28;20025;-73
2022/04/07 04:59:50;;;;;;;16.60;11.80;;;;;;;;;;5052914;28;20037;-73
2022/04/07 05:02:16;;;;;;;15.47;11.47;;;;;;;;;;5052813;28;20128;-73
2022/04/07 05:04:42;;;;;;;16.75;11.18;;;;;;;;;;5053043;28;20029;-74
2022/04/07 05:07:08;;;;;;;19.50;10.98;;;;;;;;;;5052639;28;20033;-73
2022/04/07 05:09:34;;;;;;;16.23;11.67;;;;;;;;;;5052815;28;20108;-73
2022/04/07 05:12:01;;;;;;;16.20;11.90;;;;;;;;;;5052773;28;20052;-73
2022/04/07 05:14:27;;;;;;;25.90;12.10;;;;;;;;;;5052490;28;20100;-73
2022/04/07 05:16:53;;;;;;;18.98;11.30;;;;;;;;;;5052896;28;20059;-74
2022/04/07 05:19:19;;;;;;;19.93;11.83;;;;;;;;;;5052530;28;20036;-73
2022/04/07 05:21:49;;;;;;;20.10;12.30;;;;;;;;;;5052898;28;20076;-73
2022/04/07 05:24:17;;;;;;;19.73;12.33;;;;;;;;;;5052878;28;20456;-73
2022/04/07 05:26:44;;;;;;;19.23;11.43;;;;;;;;;;5052699;28;20112;-73
2022/04/07 05:29:10;;;;;;;26.63;12.15;;;;;;;;;;5052725;28;20066;-73
2022/04/07 05:31:36;;;;;;;25.33;12.57;;;;;;;;;;5052159;28;20033;-73
2022/04/07 05:34:02;;;;;;;22.83;12.97;;;;;;;;;;5052428;28;20473;-72
2022/04/07 05:36:28;;;;;;;21.27;12.17;;;;;;;;;;5052394;28;20021;-72
2022/04/07 05:38:54;;;;;;;18.60;12.50;;;;;;;;;;5052471;28;20025;-73
2022/04/07 05:41:20;;;;;;;19.10;12.10;;;;;;;;;;5052436;28;20114;-73
2022/04/07 05:43:46;;;;;;;21.20;12.80;;;;;;;;;;5053163;28;20592;-72
2022/04/07 05:46:12;;;;;;;22.10;12.50;;;;;;;;;;5056799;28;20395;-72
2022/04/07 05:48:38;;;;;;;17.93;11.03;;;;;;;;;;5056508;28;20029;-72
2022/04/07 05:51:04;;;;;;;24.93;12.47;;;;;;;;;;5056325;28;20430;-73
2022/04/07 05:53:30;;;;;;;18.83;12.00;;;;;;;;;;5055772;28;20025;-72
2022/04/07 05:56:00;;;;;;;15.70;11.50;;;;;;;;;;5056125;28;20078;-72
2022/04/07 05:58:26;;;;;;;16.40;12.33;;;;;;;;;;5056332;28;20020;-73
2022/04/07 06:00:52;;;;;;;16.93;12.43;;;;;;;;;;5055059;28;20463;-72
2022/04/07 06:03:18;;;;;;;15.27;11.30;;;;;;;;;;5055986;28;20103;-72
2022/04/07 06:05:44;;;;;;;21.03;12.63;;;;;;;;;;5055814;28;20096;-72
2022/04/07 06:08:10;;;;;;;20.13;12.53;;;;;;;;;;5056161;28;20031;-72
2022/04/07 06:10:36;;;;;;;15.67;12.20;;;;;;;;;;5055813;28;20029;-71
2022/04/07 06:13:03;;;;;;;15.80;11.80;;;;;;;;;;5055603;28;20036;-73
2022/04/07 06:15:30;;;;;;;15.65;11.73;;;;;;;;;;5055645;28;20029;-71
2022/04/07 06:17:56;;;;;;;18.75;12.07;;;;;;;;;;5055722;28;20109;-72
2022/04/07 06:20:22;;;;;;;14.45;11.50;;;;;;;;;;5056032;28;20096;-71
2022/04/07 06:22:49;;;;;;;15.93;12.10;;;;;;;;;;5054841;28;20033;-74
2022/04/07 06:25:15;;;;;;;22.70;12.52;;;;;;;;;;5054829;28;20021;-74
2022/04/07 06:27:42;;;;;;;17.80;12.15;;;;;;;;;;5055033;28;20021;-73
2022/04/07 06:30:09;;;;;;;14.02;11.27;;;;;;;;;;5054117;28;20028;-75
2022/04/07 06:32:37;;;;;;;14.35;10.45;;;;;;;;;;5055351;28;20025;-72
2022/04/07 06:35:03;;;;;;;16.30;10.95;;;;;;;;;;5052259;28;20035;-72
2022/04/07 06:37:29;;;;;;;14.40;10.20;;;;;;;;;;5050891;28;20123;-72
2022/04/07 06:40:02;;;;;;;17.45;9.88;;;;;;;;;;5053016;28;20052;-72
2022/04/07 06:42:28;;;;;;;14.07;11.18;;;;;;;;;;5055389;28;20033;-72
2022/04/07 06:44:55;;;;;;;14.55;10.52;;;;;;;;;;5055179;28;20083;-73
2022/04/07 06:47:24;;;;;;;19.63;11.32;;;;;;;;;;5055380;28;20017;-72
2022/04/07 06:49:53;;;;;;;23.02;11.80;;;;;;;;;;5054304;28;20307;-73
2022/04/07 06:52:19;;;;;;;17.85;11.57;;;;;;;;;;5050208;28;20025;-74
2022/04/07 06:54:46;;;;;;;16.38;10.55;;;;;;;;;;5052307;28;20024;-73
2022/04/07 06:57:12;;;;;;;18.52;11.23;;;;;;;;;;4980903;28;20089;-73
2022/04/07 06:59:38;;;;;;;21.52;10.38;;;;;;;;;;4994986;28;20057;-72
2022/04/07 07:02:04;;;;;;;15.32;10.38;;;;;;;;;;4994963;28;20053;-72
2022/04/07 07:04:32;;;;;;;18.50;10.52;;;;;;;;;;4995050;28;20026;-72
2022/04/07 07:06:58;;;;;;;14.40;10.00;;;;;;;;;;4995288;28;20026;-72
2022/04/07 07:09:25;;;;;;;17.33;10.55;;;;;;;;;;4995458;28;20022;-72
2022/04/07 07:11:51;;;;;;;17.52;10.80;;;;;;;;;;4995055;28;20113;-72
2022/04/07 07:14:18;;;;;;;19.17;10.35;;;;;;;;;;4995200;28;20027;-73
2022/04/07 07:16:44;;;;;;;19.85;9.68;;;;;;;;;;4995007;28;20035;-72
2022/04/07 07:19:10;;;;;;;20.83;10.32;;;;;;;;;;4994957;28;20030;-72
2022/04/07 07:21:36;;;;;;;16.23;10.05;;;;;;;;;;4995103;28;20034;-73
2022/04/07 07:24:03;;;;;;;10.40;7.50;;;;;;;;;;4994877;28;20054;-72
2022/04/07 07:26:29;;;;;;;20.08;6.38;;;;;;;;;;4994997;28;20118;-73
2022/04/07 07:28:55;;;;;;;11.90;6.07;;;;;;;;;;4994823;28;20495;-73
2022/04/07 07:31:21;;;;;;;11.38;5.07;;;;;;;;;;4993609;28;20561;-72
2022/04/07 07:33:47;;;;;;;6.85;4.22;;;;;;;;;;4994787;28;20031;-71
2022/04/07 07:36:13;;;;;;;15.60;5.50;;;;;;;;;;4994286;28;20034;-72
2022/04/07 07:38:39;;;;;;;9.07;5.68;;;;;;;;;;4994782;28;20038;-72
2022/04/07 07:41:05;;;;;;;8.45;5.88;;;;;;;;;;4994627;28;20030;-72
2022/04/07 07:43:31;;;;;;;11.98;7.25;;;;;;;;;;4993373;28;20153;-72
2022/04/07 07:45:57;;;;;;;13.25;5.05;;;;;;;;;;4994350;28;20062;-73
2022/04/07 07:48:30;;;;;;;8.20;4.95;;;;;;;;;;4994492;28;20061;-71
2022/04/07 07:50:56;;;;;;;;;;;;;;;;;;4994952;28;20031;-72
2022/04/07 07:53:22;;;;;;;6.80;3.83;;;;;;;;;;4994972;28;20009;-72
2022/04/07 07:55:49;;;;;;;9.15;4.03;;;;;;;;;;4994836;28;20019;-73
2022/04/07 07:58:15;;;;;;;9.55;4.45;;;;;;;;;;4994600;28;20076;-71
2022/04/07 08:00:41;;;;;;;10.98;4.15;;;;;;;;;;4994081;28;20045;-72
2022/04/07 08:03:08;;;;;;;6.03;3.50;;;;;;;;;;4994568;28;20402;-73
2022/04/07 08:05:35;;;;;;;7.80;3.30;;;;;;;;;;4994331;28;20030;-70
2022/04/07 08:08:01;;;;;;;7.88;2.78;;;;;;;;;;4993828;28;20402;-71
2022/04/07 08:10:27;;;;;;;6.43;2.70;;;;;;;;;;4994233;28;20357;-71
2022/04/07 08:12:53;;;;;;;7.53;2.70;;;;;;;;;;4994120;28;20030;-71
2022/04/07 08:15:20;;;;;;;9.50;2.75;;;;;;;;;;4994268;28;20037;-71
2022/04/07 08:17:46;;;;;;;7.38;2.80;;;;;;;;;;4993864;28;20049;-71
2022/04/07 08:20:12;;;;;;;7.10;2.28;;;;;;;;;;4993221;28;20068;-73
2022/04/07 08:22:38;;;;;;;8.18;2.35;;;;;;;;;;4993820;28;20035;-71
2022/04/07 08:25:05;;;;;;;4.68;2.42;;;;;;;;;;4994260;28;20018;-71
2022/04/07 08:27:31;;;;;;;5.07;2.75;;;;;;;;;;4994047;28;20026;-71
2022/04/07 08:29:57;;;;;;;10.23;3.20;;;;;;;;;;4994032;28;20026;-71
2022/04/07 08:32:23;;;;;;;9.07;3.28;;;;;;;;;;4994028;28;20065;-70
2022/04/07 08:34:49;;;;;;;9.45;3.30;;;;;;;;;;4993845;28;20177;-71
2022/04/07 08:37:15;;;;;;;5.63;3.13;;;;;;;;;;4993757;28;20053;-71
2022/04/07 08:39:41;;;;;;;10.48;3.20;;;;;;;;;;4994033;28;20038;-71
2022/04/07 08:42:08;;;;;;;6.88;3.65;;;;;;;;;;4993966;28;20038;-71
2022/04/07 08:44:34;;;;;;;10.05;3.45;;;;;;;;;;4993869;28;20022;-70
2022/04/07 08:47:00;;;;;;;11.35;3.58;;;;;;;;;;4993968;28;20432;-71
2022/04/07 08:49:28;;;;;;;7.50;3.45;;;;;;;;;;4993812;28;20113;-71
2022/04/07 08:51:54;;;;;;;5.95;2.80;;;;;;;;;;4993022;28;20113;-70
2022/04/07 08:54:21;;;;;;;7.28;3.40;;;;;;;;;;4993615;28;20375;-71
2022/04/07 08:56:47;;;;;;;11.10;2.80;;;;;;;;;;4993618;28;20030;-70
2022/04/07 08:59:14;;;;;;;6.75;3.20;;;;;;;;;;4993567;28;20025;-71
2022/04/07 09:01:40;;;;;;;11.27;3.45;;;;;;;;;;4991981;28;20061;-74
2022/04/07 09:04:06;;;;;;;5.95;2.72;;;;;;;;;;4992190;28;20034;-71
2022/04/07 09:06:35;;;;;;;10.88;3.60;;;;;;;;;;4993329;28;20113;-72
2022/04/07 09:09:30;;;;;;;8.85;4.03;;;;;;;;;;4993182;28;20105;-71
2022/04/07 09:11:56;;;;;;;5.63;2.72;;;;;;;;;;4988584;28;20479;-71
2022/04/07 09:14:23;;;;;;;6.75;2.95;;;;;;;;;;4991960;28;20031;-71
2022/04/07 09:16:55;;;;;;;5.95;3.20;;;;;;;;;;4993532;28;20459;-70
2022/04/07 09:19:24;;;;;;;10.10;3.40;;;;;;;;;;4997003;28;20034;-74
2022/04/07 09:22:06;;;;;;;7.88;2.67;;;;;;;;;;4997842;28;20030;-71
2022/04/07 09:24:33;;;;;;;6.80;3.47;;;;;;;;;;4997317;28;20041;-71
2022/04/07 09:26:59;;;;;;;6.53;4.10;;;;;;;;;;4997403;28;20035;-71
2022/04/07 09:29:37;;;;;;;11.60;4.20;;;;;;;;;;4997036;28;20442;-71
2022/04/07 09:32:04;;;;;;;8.38;4.75;;;;;;;;;;4997269;28;20057;-71
2022/04/07 09:34:33;;;;;;;8.95;5.35;;;;;;;;;;4997258;28;20506;-71
2022/04/07 09:37:03;;;;;;;7.82;3.97;;;;;;;;;;4997086;28;20034;-73
2022/04/07 09:39:29;;;;;;;6.80;4.13;;;;;;;;;;4996965;28;20399;-72
2022/04/07 09:41:57;;;;;;;5.38;3.58;;;;;;;;;;4997141;28;20082;-72
2022/04/07 09:44:26;;;;;;;7.95;4.25;;;;;;;;;;4997018;28;20165;-71
2022/04/07 09:46:52;;;;;;;9.48;4.25;;;;;;;;;;4997127;28;20034;-71
2022/04/07 09:49:18;;;;;;;11.32;3.88;;;;;;;;;;4996831;28;20022;-71
2022/04/07 09:51:46;;;;;;;10.27;3.97;;;;;;;;;;4996596;28;20062;-73
2022/04/07 09:54:13;;;;;;;24.98;6.03;;;;;;;;;;4996970;28;20025;-71
2022/04/07 09:56:39;;;;;;;10.32;5.28;;;;;;;;;;4996679;28;20506;-64
2022/04/07 09:59:06;;;;;;;13.27;5.88;;;;;;;;;;4997060;28;20065;-63
2022/04/07 10:01:38;;;;;;;7.88;5.55;;;;;;;;;;4996838;28;20400;-63
2022/04/07 10:04:04;;;;;;;9.02;5.03;;;;;;;;;;4995579;28;20419;-64
2022/04/07 10:06:32;;;;;;;7.78;5.25;;;;;;;;;;4996783;28;20019;-64
2022/04/07 10:09:00;;;;;;;11.18;5.15;;;;;;;;;;4996603;28;20073;-71
2022/04/07 10:11:26;;;;;;;11.60;6.00;;;;;;;;;;4996259;28;20018;-71
2022/04/07 10:13:53;;;;;;;11.25;6.00;;;;;;;;;;4996154;28;20026;-72
2022/04/07 10:16:19;;;;;;;10.70;5.57;;;;;;;;;;4996173;28;20054;-72
2022/04/07 10:18:55;;;;;;;8.48;4.93;;;;;;;;;;4996333;28;20538;-72
2022/04/07 10:21:39;;;;;;;11.60;5.82;;;;;;;;;;4996211;28;20475;-72
2022/04/07 10:24:21;;;;;;;10.45;5.57;;;;;;;;;;4996198;28;20488;-72
2022/04/07 10:26:47;;;;;;;11.27;5.22;;;;;;;;;;4995865;28;20054;-76
2022/04/07 10:29:21;;;;;;;11.27;5.18;;;;;;;;;;4995727;28;20738;-72
2022/04/07 10:32:06;;;;;;;7.95;4.63;;;;;;;;;;4995420;28;20109;-72
2022/04/07 10:34:32;;;;;;;7.47;5.00;;;;;;;;;;4995874;28;20026;-72
2022/04/07 10:37:03;;;;;;;11.02;5.65;;;;;;;;;;4995910;28;20124;-77
2022/04/07 10:39:32;;;;;;;9.55;5.57;;;;;;;;;;4995748;28;20026;-77
2022/04/07 10:41:58;;;;;;;14.82;5.85;;;;;;;;;;4995811;28;20038;-72
2022/04/07 10:44:26;;;;;;;10.90;7.18;;;;;;;;;;4996102;28;20025;-73
2022/04/07 10:47:02;;;;;;;8.63;6.20;;;;;;;;;;4995730;28;20033;-73
2022/04/07 10:49:30;;;;;;;9.45;5.60;;;;;;;;;;4995646;28;20087;-72
2022/04/07 10:51:57;;;;;;;8.30;5.70;;;;;;;;;;4995805;28;20031;-76
2022/04/07 10:54:25;;;;;;;13.95;6.70;;;;;;;;;;4995353;28;20101;-72
2022/04/07 10:56:52;;;;;;;10.73;6.97;;;;;;;;;;4994803;28;20030;-72
2022/04/07 10:59:19;;;;;;;12.02;6.63;;;;;;;;;;4993749;28;20019;-72
2022/04/07 11:01:46;;;;;;;8.73;6.40;;;;;;;;;;4995494;28;20415;-72
2022/04/07 11:04:24;;;;;;;10.18;5.93;;;;;;;;;;4994504;28;20379;-72
2022/04/07 11:07:08;;;;;;;10.80;5.63;;;;;;;;;;4994590;28;20403;-72
2022/04/07 11:09:46;;;;;;;12.85;8.00;;;;;;;;;;4995504;28;20471;-73
2022/04/07 11:12:20;;;;;;;16.15;7.95;;;;;;;;;;4995419;28;20022;-72
2022/04/07 11:14:47;;;;;;;14.88;7.25;;;;;;;;;;4995673;28;20106;-72
2022/04/07 11:17:22;;;;;;;11.00;5.60;;;;;;;;;;4995696;28;20173;-72
2022/04/07 11:19:55;;;;;;;8.15;4.68;;;;;;;;;;4995449;28;20487;-72
2022/04/07 11:22:41;;;;;;;10.93;5.05;;;;;;;;;;4995456;28;20073;-72
2022/04/07 11:25:09;;;;;;;9.70;6.22;;;;;;;;;;4995240;28;20474;-72
2022/04/07 11:27:37;;;;;;;11.40;6.03;;;;;;;;;;4995249;28;20069;-72
2022/04/07 11:30:07;;;;;;;11.68;7.72;;;;;;;;;;4993874;28;20023;-73
2022/04/07 11:32:33;;;;;;;13.00;7.30;;;;;;;;;;4995036;28;20214;-76
2022/04/07 11:35:13;;;;;;;11.57;6.57;;;;;;;;;;4994839;28;20041;-72
2022/04/07 11:37:40;;;;;;;12.32;5.55;;;;;;;;;;4994787;28;20500;-73
2022/04/07 11:40:07;;;;;;;11.43;5.18;;;;;;;;;;4994430;28;20293;-73
2022/04/07 11:42:33;;;;;;;10.63;5.35;;;;;;;;;;4993771;28;20042;-72
2022/04/07 11:45:00;;;;;;;14.52;6.57;;;;;;;;;;4995177;28;20418;-74
2022/04/07 11:47:33;;;;;;;10.70;7.00;;;;;;;;;;4994799;28;20037;-72
2022/04/07 11:49:59;;;;;;;18.98;6.53;;;;;;;;;;4994566;28;20030;-71
2022/04/07 11:52:29;;;;;;;14.35;5.72;;;;;;;;;;4994682;28;20042;-72
2022/04/07 11:54:59;;;;;;;15.32;5.90;;;;;;;;;;4994448;28;20030;-71
2022/04/07 11:57:26;;;;;;;7.95;4.93;;;;;;;;;;4994665;28;20054;-71
2022/04/07 11:59:58;;;;;;;11.85;5.53;;;;;;;;;;4994527;28;20030;-71
2022/04/07 12:02:25;;;;;;;11.68;4.63;;;;;;;;;;4994439;28;20057;-72
2022/04/07 12:04:55;;;;;;;12.18;4.65;;;;;;;;;;4994831;28;20368;-72
2022/04/07 12:07:22;;;;;;;14.20;4.25;;;;;;;;;;4994377;28;20054;-72
2022/04/07 12:09:49;;;;;;;7.22;4.30;;;;;;;;;;4994227;28;20054;-71
2022/04/07 12:12:15;;;;;;;11.80;6.30;;;;;;;;;;4993338;28;20034;-72
2022/04/07 12:14:44;;;;;;;10.48;6.38;;;;;;;;;;4994507;28;20069;-71
2022/04/07 12:17:10;;;;;;;12.38;5.68;;;;;;;;;;4994138;28;20157;-71
2022/04/07 12:19:43;;;;;;;13.20;5.20;;;;;;;;;;4994346;28;20081;-71
2022/04/07 12:22:10;;;;;;;14.35;5.60;;;;;;;;;;4994334;28;20038;-71
2022/04/07 12:24:36;;;;;;;9.23;5.15;;;;;;;;;;4993911;28;20026;-71
2022/04/07 12:27:04;;;;;;;10.23;5.88;;;;;;;;;;4993984;28;20117;-72
2022/04/07 12:29:31;;;;;;;11.88;5.30;;;;;;;;;;4993854;28;20014;-72
2022/04/07 12:32:17;;;;;;;12.82;5.30;;;;;;;;;;4994046;28;20026;-71
2022/04/07 12:34:50;;;;;;;10.18;4.07;;;;;;;;;;4992856;28;20038;-72
2022/04/07 12:37:33;;;;;;;7.50;4.40;;;;;;;;;;4993475;28;20025;-78
2022/04/07 12:39:59;;;;;;;16.85;13.18;;;;;;;;;;4993570;28;20487;-71
2022/04/07 12:42:25;;;;;;;8.50;3.88;;;;;;;;;;4993270;28;20034;-71
2022/04/07 12:45:03;;;;;;;10.15;3.90;;;;;;;;;;4993097;28;20034;-72
2022/04/07 12:47:29;;;;;;;8.77;4.13;;;;;;;;;;4993030;28;20372;-70
2022/04/07 12:49:55;;;;;;;8.80;4.25;;;;;;;;;;4993427;28;20080;-71
2022/04/07 12:52:21;;;;;;;7.15;4.78;;;;;;;;;;4992999;28;20497;-71
2022/04/07 12:54:56;;;;;;;10.95;5.18;;;;;;;;;;4993271;28;20019;-71
2022/04/07 12:57:22;;;;;;;8.77;4.60;;;;;;;;;;4993228;28;20030;-71
2022/04/07 12:59:56;;;;;;;8.75;4.40;;;;;;;;;;4993641;28;20022;-72
2022/04/07 13:02:23;;;;;;;13.57;4.88;;;;;;;;;;4993272;28;20038;-72
2022/04/07 13:04:52;;;;;;;7.80;4.50;;;;;;;;;;4993346;28;20058;-71
2022/04/07 13:07:18;;;;;;;9.30;4.20;;;;;;;;;;4993563;28;20467;-71
2022/04/07 13:09:45;;;;;;;12.75;5.20;;;;;;;;;;4993403;28;20105;-71
2022/04/07 13:12:13;;;;;;;9.68;4.78;;;;;;;;;;4993264;28;20475;-71
2022/04/07 13:14:39;;;;;;;10.07;4.32;;;;;;;;;;4993671;28;20426;-71
2022/04/07 13:17:05;;;;;;;7.10;3.80;;;;;;;;;;4993591;28;20022;-71
2022/04/07 13:19:32;;;;;;;10.27;4.00;;;;;;;;;;4993392;28;20018;-71
2022/04/07 13:21:58;;;;;;;9.57;4.30;;;;;;;;;;4993486;28;20085;-71
2022/04/07 13:24:24;;;;;;;9.55;3.90;;;;;;;;;;4993663;28;20038;-71
2022/04/07 13:26:50;;;;;;;9.73;3.83;;;;;;;;;;4993537;28;20018;-71
2022/04/07 13:29:16;;;;;;;10.13;3.47;;;;;;;;;;4993189;28;20035;-72
2022/04/07 13:31:42;;;;;;;6.65;3.53;;;;;;;;;;4993340;28;20030;-71
2022/04/07 13:34:09;;;;;;;11.18;3.75;;;;;;;;;;4993414;28;20121;-71
2022/04/07 13:36:37;;;;;;;7.82;4.03;;;;;;;;;;4993288;28;20395;-71
2022/04/07 13:39:03;;;;;;;5.25;3.92;;;;;;;;;;4993080;28;20423;-71
2022/04/07 13:41:29;;;;;;;9.20;3.85;;;;;;;;;;4992854;28;20014;-71
2022/04/07 13:43:55;;;;;;;9.70;3.92;;;;;;;;;;4993072;28;20448;-72
2022/04/07 13:46:21;;;;;;;7.82;4.28;;;;;;;;;;4993064;28;20105;-71
2022/04/07 13:48:47;;;;;;;8.00;3.33;;;;;;;;;;4993017;28;20113;-71
2022/04/07 13:51:14;;;;;;;6.10;3.15;;;;;;;;;;4993162;28;20494;-71
2022/04/07 13:53:40;;;;;;;5.95;3.15;;;;;;;;;;4992725;28;20025;-71
2022/04/07 13:56:06;;;;;;;6.47;3.35;;;;;;;;;;4992232;28;20030;-71
2022/04/07 13:58:34;;;;;;;12.73;3.40;;;;;;;;;;4992456;28;20029;-71
2022/04/07 14:01:00;;;;;;;8.90;3.10;;;;;;;;;;4992442;28;20053;-71
2022/04/07 14:03:26;;;;;;;9.75;3.25;;;;;;;;;;4992568;28;20047;-71
2022/04/07 14:05:58;;;;;;;8.93;3.55;;;;;;;;;;4995313;28;20018;-70
2022/04/07 14:08:25;;;;;;;11.07;3.45;;;;;;;;;;4996203;28;20106;-70
2022/04/07 14:10:51;;;;;;;7.80;3.30;;;;;;;;;;4996128;28;20019;-71
2022/04/07 14:13:20;;;;;;;5.15;3.00;;;;;;;;;;4996392;28;20022;-77
2022/04/07 14:15:47;;;;;;;9.75;3.72;;;;;;;;;;4996164;28;20149;-72
2022/04/07 14:18:13;;;;;;;10.02;4.10;;;;;;;;;;4994220;28;20019;-71
2022/04/07 14:20:41;;;;;;;11.40;5.63;;;;;;;;;;4995144;28;20022;-72
2022/04/07 14:23:10;;;;;;;9.40;3.72;;;;;;;;;;4995167;28;20042;-76
2022/04/07 14:25:36;;;;;;;11.40;4.82;;;;;;;;;;4991724;28;20019;-73
2022/04/07 14:28:02;;;;;;;12.18;5.05;;;;;;;;;;4992693;28;20028;-73